Paulistana II — 00 — position and weather

sailwx.info

Track history (hours):
 
Tides and Currents Weather Stations Pressure Air Temp Water Temp Dewpoint Dewpoint Depression Visibility Wind Speed Wind Dir Waves Ship Positions

Paulistana II

Last reported at 2015-Mar-06 10:04 UTC. Time now 2015-Mar-06 11:07 UTC.
Position N 31°12' E 121°29'.

Length 6 m.

Type: Pollution control. MMSI: 316014038.

Date/timePositionNaut miles runAvg speedWind from/ knotsBaromVisibWave heightAir tempDewpointWater temp
2015-Mar-06 10:04N 31°12' E 121°29'3 4.9
2015-Mar-06 09:33N 31°09' E 121°28'8038.6
2015-Mar-06 07:28N 31°56' E 120°10'803576.0
2015-Mar-06 07:27N 30°58' E 121°16'6 6.3
2015-Mar-06 06:32N 30°59' E 121°22'112.6
2015-Mar-06 06:28N 30°59' E 121°23'94587.5
2015-Mar-06 06:18N 31°60' E 119°59'91122.3
2015-Mar-06 05:34N 30°58' E 121°19'9445.8
2015-Mar-06 05:32N 31°02' E 121°29'7 6.8
2015-Mar-06 04:33N 31°08' E 121°28'17657.2
2015-Mar-06 04:31N 30°57' E 121°13'631191.9
2015-Mar-06 01:14N 22°58' E 113°32'65910545.4
2015-Mar-06 01:10N 31°21' E 121°31'6561045.4
2015-Mar-06 00:33N 23°04' E 113°29'65787648.9
2015-Mar-06 00:32N 31°23' E 121°30'657666.3
2015-Mar-05 23:33N 23°06' E 113°27'0 0.0
2015-Mar-05 22:33N 23°06' E 113°27'0 0.0
2015-Mar-05 21:33N 23°06' E 113°27'0 0.0
2015-Mar-05 20:33N 23°06' E 113°27'0 0.0
2015-Mar-05 19:33N 23°06' E 113°27'0 0.0
2015-Mar-05 18:33N 23°06' E 113°27'0 0.0
2015-Mar-05 17:33N 23°06' E 113°27'0 0.0
2015-Mar-05 16:33N 23°06' E 113°27'0 0.0
2015-Mar-05 15:33N 23°06' E 113°27'0 0.0
2015-Mar-05 14:33N 23°06' E 113°27'0 0.1
2015-Mar-05 13:33N 23°06' E 113°27'1 0.9
2015-Mar-05 12:34N 23°05' E 113°26'0 0.0
2015-Mar-05 11:33N 23°05' E 113°26'65913262.5
2015-Mar-05 11:31N 31°26' E 121°28'659693.9
2015-Mar-05 10:33N 23°05' E 113°26'0 0.0
2015-Mar-05 09:34N 23°05' E 113°26'6601512.9
2015-Mar-05 09:07N 31°39' E 121°14'6601170.8
2015-Mar-05 08:33N 23°05' E 113°26'0 0.0
2015-Mar-05 07:33N 23°05' E 113°26'6611429.9
2015-Mar-05 07:06N 31°36' E 121°17'6611215.1
2015-Mar-05 06:33N 23°05' E 113°26'66016503.3
2015-Mar-05 06:31N 31°32' E 121°22'660691.6
2015-Mar-05 05:33N 23°05' E 113°26'6 6.2
2015-Mar-05 04:33N 23°01' E 113°31'660165.4
2015-Mar-05 00:33N 31°52' E 120°53'8 7.4
2015-Mar-04 23:32N 31°59' E 120°50'7 6.7
2015-Mar-04 22:33N 32°00' E 120°42'63 7.9
2015-Mar-04 14:33N 31°26' E 121°44'7 7.5
2015-Mar-04 13:33N 31°19' E 121°48'4 4.0
2015-Mar-04 12:33N 31°16' E 121°46'6 5.4
2015-Mar-04 11:32N 31°12' E 121°50'4 4.3
2015-Mar-04 10:32N 31°09' E 121°54'4 3.9
2015-Mar-04 09:33N 31°07' E 121°58'14 4.2
2015-Mar-04 06:09N 30°56' E 122°09'4 6.5
2015-Mar-04 05:31N 30°52' E 122°09'7 6.7
2015-Mar-04 04:32N 30°46' E 122°05'7 6.7
2015-Mar-04 03:33N 30°43' E 121°58'6 5.8
2015-Mar-04 02:32N 30°39' E 121°53'6438293.4
2015-Mar-04 02:28N 22°57' E 113°32'7 8.2
2015-Mar-04 01:33N 23°04' E 113°29'2 2.1
2015-Mar-04 00:33N 23°06' E 113°27'0 0.0
2015-Mar-03 23:33N 23°06' E 113°27'0 0.0
2015-Mar-03 22:33N 23°06' E 113°27'0 0.0
2015-Mar-03 21:33N 23°06' E 113°27'6191830.5
2015-Mar-03 21:13N 30°02' E 121°59'619943.1
2015-Mar-03 20:33N 23°06' E 113°27'0 0.0
2015-Mar-03 19:33N 23°06' E 113°27'0 0.0
2015-Mar-03 18:33N 23°06' E 113°27'0 0.0
2015-Mar-03 17:33N 23°06' E 113°27'0 0.0
2015-Mar-03 16:33N 23°06' E 113°27'0 0.0
2015-Mar-03 15:33N 23°06' E 113°27'1 1.0
2015-Mar-03 14:33N 23°05' E 113°26'0 0.0
2015-Mar-03 13:33N 23°05' E 113°26'0 0.0
2015-Mar-03 12:33N 23°05' E 113°26'62020099.5
2015-Mar-03 12:31N 29°56' E 122°04'620643.1
2015-Mar-03 11:33N 23°05' E 113°26'6174946.5
2015-Mar-03 11:26N 29°50' E 122°06'617705.1
2015-Mar-03 10:33N 23°05' E 113°26'6105988.3
2015-Mar-03 10:27N 29°43' E 122°03'610684.0
2015-Mar-03 09:33N 23°05' E 113°26'1 1.0
2015-Mar-03 08:33N 23°06' E 113°27'0 0.0
2015-Mar-03 07:33N 23°06' E 113°27'0 0.0
2015-Mar-03 06:33N 23°06' E 113°27'0 0.0
2015-Mar-03 05:33N 23°06' E 113°27'0 0.3
2015-Mar-03 04:33N 23°06' E 113°27'0 0.4
2015-Mar-03 03:33N 23°06' E 113°26'1 0.6
2015-Mar-03 02:33N 23°06' E 113°27'1 1.3
2015-Mar-03 01:32N 23°05' E 113°28'664292.5
2015-Mar-02 23:16N 32°04' E 120°45'47 1.9
2015-Mar-01 22:22N 32°17' E 119°51'13 7.0
2015-Mar-01 20:33N 32°05' E 119°56'64433097.2
2015-Mar-01 20:32N 22°59' E 113°32'641654.6
2015-Mar-01 19:33N 31°59' E 120°01'63771702.5
2015-Mar-01 19:33N 23°06' E 113°27'0 0.0
2015-Mar-01 18:33N 23°06' E 113°27'640767636.3
2015-Mar-01 18:33N 31°56' E 120°10'8 7.7
2015-Mar-01 17:33N 31°58' E 120°19'6461162434.3
2015-Mar-01 17:33N 23°06' E 113°27'653654.2
2015-Mar-01 16:33N 32°03' E 120°26'653180867.3
2015-Mar-01 16:33N 23°06' E 113°27'0 0.0
2015-Mar-01 15:33N 23°06' E 113°27'6571182659.2
2015-Mar-01 15:33N 32°03' E 120°33'6 6.1
2015-Mar-01 14:33N 32°00' E 120°40'65856393.2
2015-Mar-01 14:33N 23°06' E 113°27'662659.6
2015-Mar-01 13:32N 32°01' E 120°46'6 5.7
2015-Mar-01 12:33N 31°57' E 120°52'6 5.9
2015-Mar-01 11:32N 31°52' E 120°54'65936490.5
2015-Mar-01 11:31N 23°06' E 113°27'0 0.0
2015-Mar-01 10:33N 23°06' E 113°27'6583906.3
2015-Mar-01 10:23N 31°47' E 120°59'658792.5
2015-Mar-01 09:33N 23°06' E 113°27'66014757.9
2015-Mar-01 09:31N 31°46' E 121°05'6 6.0
2015-Mar-01 08:33N 31°42' E 121°09'6592373810.2
2015-Mar-01 08:33N 23°06' E 113°27'0 0.0
2015-Mar-01 07:33N 23°06' E 113°27'6602375384.0
2015-Mar-01 07:33N 31°38' E 121°15'6 6.5
2015-Mar-01 06:33N 31°33' E 121°20'65971876.4
2015-Mar-01 06:33N 23°06' E 113°27'660665.8
2015-Mar-01 05:33N 31°29' E 121°27'66044808.3
2015-Mar-01 05:33N 23°06' E 113°27'660667.8
2015-Mar-01 04:33N 31°24' E 121°33'66079181.1
2015-Mar-01 04:33N 23°06' E 113°27'0 0.1
2015-Mar-01 03:33N 23°06' E 113°27'65927603.5
2015-Mar-01 03:31N 31°23' E 121°34'659675.6
2015-Mar-01 02:33N 23°06' E 113°27'65926675.3
2015-Mar-01 02:31N 31°23' E 121°34'659681.6
2015-Mar-01 01:33N 23°04' E 113°30'65920119.5
2015-Mar-01 01:31N 31°23' E 121°34'2 2.1
2015-Mar-01 00:33N 31°24' E 121°36'0 0.1
2015-Feb-28 23:32N 31°24' E 121°37'0 0.0
2015-Feb-28 22:32N 31°24' E 121°37'0 0.0
2015-Feb-28 21:32N 31°24' E 121°37'0 0.0
2015-Feb-28 20:32N 31°24' E 121°37'4 3.7
2015-Feb-28 19:33N 31°21' E 121°39'0 0.0
2015-Feb-28 18:33N 31°20' E 121°39'0 0.0
2015-Feb-28 17:33N 31°20' E 121°39'0 0.0
2015-Feb-28 16:33N 31°20' E 121°39'0 0.0
2015-Feb-28 15:28N 31°20' E 121°39'0 0.2
2015-Feb-28 14:33N 31°21' E 121°39'1 1.1
2015-Feb-28 13:28N 31°20' E 121°40'0 0.0
2015-Feb-28 12:31N 31°20' E 121°40'0 0.3
2015-Feb-28 11:33N 31°20' E 121°40'0 0.4
2015-Feb-28 10:33N 31°20' E 121°40'4 3.6
2015-Feb-28 09:27N 31°22' E 121°36'0 0.0
2015-Feb-28 08:27N 31°22' E 121°36'0 0.0
2015-Feb-28 07:33N 31°22' E 121°36'0 0.1
2015-Feb-28 06:33N 31°22' E 121°36'0 0.0
2015-Feb-28 05:33N 31°22' E 121°36'0 0.0
2015-Feb-28 04:33N 31°22' E 121°36'5 5.4
2015-Feb-28 03:33N 31°25' E 121°30'7 7.4
2015-Feb-28 02:33N 31°30' E 121°24'7 7.2
2015-Feb-28 01:33N 31°35' E 121°18'6 6.3
2015-Feb-28 00:33N 31°39' E 121°13'7 6.6
2015-Feb-27 23:33N 31°43' E 121°06'7 7.1
2015-Feb-27 22:33N 31°47' E 120°59'8 7.6
2015-Feb-27 21:33N 31°52' E 120°53'9 8.8
2015-Feb-27 20:33N 32°00' E 120°48'9 9.0
2015-Feb-27 19:33N 31°60' E 120°38'9 8.6
2015-Feb-27 18:33N 32°04' E 120°29'65752548.7
2015-Feb-27 18:33N 23°02' E 113°31'650659.4
2015-Feb-27 17:33N 32°00' E 120°22'64946732.9
2015-Feb-27 17:33N 23°06' E 113°27'0 0.0
2015-Feb-27 16:33N 23°06' E 113°27'642128331.0
2015-Feb-27 16:33N 31°56' E 120°14'642644.9
2015-Feb-27 15:33N 23°06' E 113°27'638176674.1
2015-Feb-27 15:33N 31°57' E 120°05'638640.1
2015-Feb-27 14:33N 23°06' E 113°27'63860411.2
2015-Feb-27 14:33N 32°01' E 119°57'638641.1
2015-Feb-27 13:33N 23°06' E 113°27'0 0.0
2015-Feb-27 12:33N 23°06' E 113°27'64833334.1
2015-Feb-27 12:32N 32°18' E 119°49'648657.1
2015-Feb-27 11:33N 23°06' E 113°27'0 0.0
2015-Feb-27 10:33N 23°06' E 113°27'0 0.0
2015-Feb-27 09:33N 23°06' E 113°27'6606670.7
2015-Feb-27 09:27N 31°42' E 121°10'660741.4
2015-Feb-27 08:33N 23°06' E 113°27'6602375681.0
2015-Feb-27 08:33N 31°38' E 121°15'660659.5
2015-Feb-27 07:33N 23°06' E 113°27'659593390.9
2015-Feb-27 07:33N 31°35' E 121°19'5 5.4
2015-Feb-27 06:33N 31°31' E 121°24'65959354.9
2015-Feb-27 06:33N 23°06' E 113°27'0 0.0
2015-Feb-27 05:33N 23°06' E 113°27'66084795.4
2015-Feb-27 05:33N 31°28' E 121°28'660665.3
2015-Feb-27 04:33N 23°05' E 113°26'661264339.3
2015-Feb-27 04:33N 31°24' E 121°33'6 5.6
2015-Feb-27 03:33N 31°22' E 121°39'66279449.6
2015-Feb-27 03:33N 23°05' E 113°26'662668.8
2015-Feb-27 02:33N 31°19' E 121°41'662125388.0
2015-Feb-27 02:33N 23°05' E 113°26'0 0.0
2015-Feb-27 01:33N 23°05' E 113°26'662113445.5
2015-Feb-27 01:33N 31°19' E 121°41'0 0.0
2015-Feb-27 00:33N 31°19' E 121°41'662476474.4
2015-Feb-27 00:33N 23°05' E 113°26'0 0.0
2015-Feb-26 23:33N 23°05' E 113°26'661198444.2
2015-Feb-26 23:33N 31°22' E 121°37'5 5.5
2015-Feb-26 22:34N 31°24' E 121°31'659169544.9
2015-Feb-26 22:33N 23°05' E 113°26'657659.4
2015-Feb-26 21:33N 31°21' E 121°31'65732403.3
2015-Feb-26 21:32N 23°05' E 113°26'0 0.0
2015-Feb-26 20:33N 23°05' E 113°26'6572365454.2
2015-Feb-26 20:33N 31°21' E 121°31'0 0.0
2015-Feb-26 19:33N 31°21' E 121°31'657181955.5
2015-Feb-26 19:33N 23°05' E 113°26'0 0.0
2015-Feb-26 18:33N 23°05' E 113°26'65787608.8
2015-Feb-26 18:33N 31°21' E 121°31'657658.3
2015-Feb-26 17:33N 23°05' E 113°26'657236562.7
2015-Feb-26 17:33N 31°21' E 121°31'657662.6
2015-Feb-26 16:33N 23°05' E 113°26'657131414.1
2015-Feb-26 16:33N 31°21' E 121°31'0 0.0
2015-Feb-26 15:33N 31°21' E 121°31'65694516.2
2015-Feb-26 15:33N 23°06' E 113°27'0 0.3
2015-Feb-26 14:33N 23°06' E 113°27'656787343.6
2015-Feb-26 14:33N 31°21' E 121°31'0 0.0
2015-Feb-26 13:33N 31°21' E 121°31'656107364.3
2015-Feb-26 13:33N 23°06' E 113°27'0 0.0
2015-Feb-26 12:33N 23°06' E 113°27'65641438.0
2015-Feb-26 12:32N 31°21' E 121°31'656666.7
2015-Feb-26 11:33N 23°06' E 113°27'65642944.9
2015-Feb-26 11:32N 31°21' E 121°31'656658.8
2015-Feb-26 10:33N 23°06' E 113°27'65684355.4
2015-Feb-26 10:32N 31°21' E 121°31'656668.5
2015-Feb-26 09:33N 23°06' E 113°27'65617115.5
2015-Feb-26 09:31N 31°21' E 121°31'0 0.0
2015-Feb-26 08:33N 31°21' E 121°31'656337421.7
2015-Feb-26 08:33N 23°06' E 113°27'656652.5
2015-Feb-26 07:33N 31°21' E 121°31'656112485.3
2015-Feb-26 07:33N 23°06' E 113°27'8 8.4
2015-Feb-26 06:33N 22°58' E 113°32'6596499.3
2015-Feb-26 06:27N 31°21' E 121°30'0 0.0
2015-Feb-26 05:32N 31°21' E 121°30'0 0.0
2015-Feb-26 04:33N 31°21' E 121°30'0 0.0
2015-Feb-26 03:33N 31°21' E 121°30'0 0.0
2015-Feb-26 02:33N 31°21' E 121°30'0 0.1
2015-Feb-26 01:29N 31°21' E 121°31'0 0.0
2015-Feb-26 00:30N 31°21' E 121°31'0 0.1
2015-Feb-25 23:33N 31°21' E 121°31'0 0.2
2015-Feb-25 22:33N 31°21' E 121°30'610415378.7
2015-Feb-25 22:09N 33°37' W 117°55'610410085.4
2015-Feb-25 21:33N 31°21' E 121°30'539759054.2
2015-Feb-25 21:28N 49°18' W 122°53'53975983.6
2015-Feb-25 20:33N 31°21' E 121°30'5393388314.5
2015-Feb-25 20:33N 49°18' W 122°58'53935458.5
2015-Feb-25 19:33N 31°21' E 121°30'53931617988.2
2015-Feb-25 19:33N 49°18' W 122°58'53935403.8
2015-Feb-25 18:33N 31°21' E 121°30'53953236729.4
2015-Feb-25 18:33N 49°18' W 122°56'53955394.5
2015-Feb-25 17:33N 31°21' E 121°30'0 0.0
2015-Feb-25 16:33N 31°21' E 121°30'0 0.0
2015-Feb-25 15:33N 31°21' E 121°30'0 0.1
2015-Feb-25 14:33N 31°21' E 121°30'6591451.2
2015-Feb-25 14:06N 22°59' E 113°31'6591207.3
2015-Feb-25 13:33N 31°21' E 121°30'6561181015.4
2015-Feb-25 13:33N 23°04' E 113°29'63230343.1
2015-Feb-25 13:32N 30°58' E 121°18'632645.4
2015-Feb-25 12:33N 23°06' E 113°27'6351142327.9
2015-Feb-25 12:33N 30°59' E 121°22'242007.7
2015-Feb-25 12:32N 31°22' E 121°30'656664.5
2015-Feb-25 11:33N 23°06' E 113°27'660113155.9
2015-Feb-25 11:33N 31°25' E 121°33'252702.0
2015-Feb-25 11:32N 31°01' E 121°27'3 3.5
2015-Feb-25 10:33N 31°04' E 121°28'213506.1
2015-Feb-25 10:33N 31°25' E 121°33'660396045.5
2015-Feb-25 10:33N 23°06' E 113°27'0 0.0
2015-Feb-25 09:33N 23°06' E 113°27'645154771.8
2015-Feb-25 09:33N 31°09' E 121°27'17741.3
2015-Feb-25 09:32N 31°25' E 121°33'1212.8
2015-Feb-25 08:33N 31°13' E 121°30'650259836.5
2015-Feb-25 08:33N 23°06' E 113°27'660198022.7
2015-Feb-25 08:33N 31°25' E 121°33'0 0.0
2015-Feb-25 07:33N 31°25' E 121°33'660475257.8
2015-Feb-25 07:33N 23°06' E 113°27'65318662.3
2015-Feb-25 07:31N 31°16' E 121°33'9 9.6
2015-Feb-25 06:33N 31°25' E 121°33'66099011.4
2015-Feb-25 06:33N 23°06' E 113°27'6575301.3
2015-Feb-25 06:26N 31°20' E 121°33'658755.3
2015-Feb-25 05:33N 23°05' E 113°26'66016495.9
2015-Feb-25 05:31N 31°27' E 121°28'5971.6
2015-Feb-25 05:31N 31°23' E 121°30'1212.0
2015-Feb-25 04:33N 31°31' E 121°21'659182547.5
2015-Feb-25 04:33N 23°05' E 113°26'66028271.0
2015-Feb-25 04:31N 31°26' E 121°29'1616.6
2015-Feb-25 03:33N 31°38' E 121°15'661297243.0
2015-Feb-25 03:33N 23°05' E 113°26'65943947.4
2015-Feb-25 03:32N 31°30' E 121°23'659669.2
2015-Feb-25 02:33N 23°05' E 113°26'660395820.3
2015-Feb-25 02:33N 31°34' E 121°18'112721.9
2015-Feb-25 02:33N 31°42' E 121°09'5 4.6
2015-Feb-25 01:34N 31°39' E 121°13'66069927.1
2015-Feb-25 01:33N 23°05' E 113°26'682349025.9
2015-Feb-25 01:25N 33°37' W 117°55'68237977.3
2015-Feb-25 00:33N 23°05' E 113°26'0 0.1
2015-Feb-24 23:33N 23°05' E 113°26'66074236.4
2015-Feb-24 23:33N 31°44' E 121°05'1060.2
2015-Feb-24 23:22N 31°50' E 120°54'3 3.4
2015-Feb-24 22:33N 31°53' E 120°53'660125063.0
2015-Feb-24 22:33N 23°05' E 113°26'0 0.0
2015-Feb-24 21:33N 23°05' E 113°26'61901591596.6
2015-Feb-24 21:33N 49°18' W 122°56'5394285545.7
2015-Feb-24 21:32N 31°56' E 120°52'662674.0
2015-Feb-24 20:33N 23°05' E 113°26'66319902.8
2015-Feb-24 20:31N 31°60' E 120°49'539296569.0
2015-Feb-24 20:28N 49°18' W 122°58'61886838.1
2015-Feb-24 19:33N 23°05' E 113°26'6188167505.7
2015-Feb-24 19:31N 49°18' W 122°58'61886423.9
2015-Feb-24 18:33N 23°05' E 113°26'61892784830.1
2015-Feb-24 18:33N 49°18' W 122°58'61896204.0
2015-Feb-24 17:33N 23°05' E 113°26'0 0.0
2015-Feb-24 16:33N 23°05' E 113°26'6621492.4
2015-Feb-24 16:06N 31°55' E 120°52'6621214.0
2015-Feb-24 15:33N 23°05' E 113°26'6632287.6
2015-Feb-24 15:16N 31°59' E 120°49'663934.0
2015-Feb-24 14:33N 23°05' E 113°26'6601438.6
2015-Feb-24 14:06N 32°00' E 120°42'6601220.0
2015-Feb-24 13:33N 23°05' E 113°26'6585935.0
2015-Feb-24 13:27N 31°60' E 120°38'657738.5
2015-Feb-24 12:33N 23°06' E 113°27'0 0.0
2015-Feb-24 11:33N 23°06' E 113°27'0 0.0
2015-Feb-24 10:33N 23°06' E 113°27'  
Track history (hours):
 
Tides and Currents Weather Stations Pressure Air Temp Water Temp Dewpoint Dewpoint Depression Visibility Wind Speed Wind Dir Waves Ship Positions

Paulistana II

Last reported at 2015-Mar-06 10:04 UTC. Time now 2015-Mar-06 11:07 UTC.
Position N 31°12' E 121°29'.

Length 6 m.

Type: Pollution control. MMSI: 316014038.

Date/timePositionNaut miles runAvg speedWind from/ knotsBaromVisibWave heightAir tempDewpointWater temp
2015-Mar-06 10:04N 31°12' E 121°29'3 4.9
2015-Mar-06 09:33N 31°09' E 121°28'8038.6
2015-Mar-06 07:28N 31°56' E 120°10'803576.0
2015-Mar-06 07:27N 30°58' E 121°16'6 6.3
2015-Mar-06 06:32N 30°59' E 121°22'112.6
2015-Mar-06 06:28N 30°59' E 121°23'94587.5
2015-Mar-06 06:18N 31°60' E 119°59'91122.3
2015-Mar-06 05:34N 30°58' E 121°19'9445.8
2015-Mar-06 05:32N 31°02' E 121°29'7 6.8
2015-Mar-06 04:33N 31°08' E 121°28'17657.2
2015-Mar-06 04:31N 30°57' E 121°13'631191.9
2015-Mar-06 01:14N 22°58' E 113°32'65910545.4
2015-Mar-06 01:10N 31°21' E 121°31'6561045.4
2015-Mar-06 00:33N 23°04' E 113°29'65787648.9
2015-Mar-06 00:32N 31°23' E 121°30'657666.3
2015-Mar-05 23:33N 23°06' E 113°27'0 0.0
2015-Mar-05 22:33N 23°06' E 113°27'0 0.0
2015-Mar-05 21:33N 23°06' E 113°27'0 0.0
2015-Mar-05 20:33N 23°06' E 113°27'0 0.0
2015-Mar-05 19:33N 23°06' E 113°27'0 0.0
2015-Mar-05 18:33N 23°06' E 113°27'0 0.0
2015-Mar-05 17:33N 23°06' E 113°27'0 0.0
2015-Mar-05 16:33N 23°06' E 113°27'0 0.0
2015-Mar-05 15:33N 23°06' E 113°27'0 0.0
2015-Mar-05 14:33N 23°06' E 113°27'0 0.1
2015-Mar-05 13:33N 23°06' E 113°27'1 0.9
2015-Mar-05 12:34N 23°05' E 113°26'0 0.0
2015-Mar-05 11:33N 23°05' E 113°26'65913262.5
2015-Mar-05 11:31N 31°26' E 121°28'659693.9
2015-Mar-05 10:33N 23°05' E 113°26'0 0.0
2015-Mar-05 09:34N 23°05' E 113°26'6601512.9
2015-Mar-05 09:07N 31°39' E 121°14'6601170.8
2015-Mar-05 08:33N 23°05' E 113°26'0 0.0
2015-Mar-05 07:33N 23°05' E 113°26'6611429.9
2015-Mar-05 07:06N 31°36' E 121°17'6611215.1
2015-Mar-05 06:33N 23°05' E 113°26'66016503.3
2015-Mar-05 06:31N 31°32' E 121°22'660691.6
2015-Mar-05 05:33N 23°05' E 113°26'6 6.2
2015-Mar-05 04:33N 23°01' E 113°31'660165.4
2015-Mar-05 00:33N 31°52' E 120°53'8 7.4
2015-Mar-04 23:32N 31°59' E 120°50'7 6.7
2015-Mar-04 22:33N 32°00' E 120°42'63 7.9
2015-Mar-04 14:33N 31°26' E 121°44'7 7.5
2015-Mar-04 13:33N 31°19' E 121°48'4 4.0
2015-Mar-04 12:33N 31°16' E 121°46'6 5.4
2015-Mar-04 11:32N 31°12' E 121°50'4 4.3
2015-Mar-04 10:32N 31°09' E 121°54'4 3.9
2015-Mar-04 09:33N 31°07' E 121°58'14 4.2
2015-Mar-04 06:09N 30°56' E 122°09'4 6.5
2015-Mar-04 05:31N 30°52' E 122°09'7 6.7
2015-Mar-04 04:32N 30°46' E 122°05'7 6.7
2015-Mar-04 03:33N 30°43' E 121°58'6 5.8
2015-Mar-04 02:32N 30°39' E 121°53'6438293.4
2015-Mar-04 02:28N 22°57' E 113°32'7 8.2
2015-Mar-04 01:33N 23°04' E 113°29'2 2.1
2015-Mar-04 00:33N 23°06' E 113°27'0 0.0
2015-Mar-03 23:33N 23°06' E 113°27'0 0.0
2015-Mar-03 22:33N 23°06' E 113°27'0 0.0
2015-Mar-03 21:33N 23°06' E 113°27'6191830.5
2015-Mar-03 21:13N 30°02' E 121°59'619943.1
2015-Mar-03 20:33N 23°06' E 113°27'0 0.0
2015-Mar-03 19:33N 23°06' E 113°27'0 0.0
2015-Mar-03 18:33N 23°06' E 113°27'0 0.0
2015-Mar-03 17:33N 23°06' E 113°27'0 0.0
2015-Mar-03 16:33N 23°06' E 113°27'0 0.0
2015-Mar-03 15:33N 23°06' E 113°27'1 1.0
2015-Mar-03 14:33N 23°05' E 113°26'0 0.0
2015-Mar-03 13:33N 23°05' E 113°26'0 0.0
2015-Mar-03 12:33N 23°05' E 113°26'62020099.5
2015-Mar-03 12:31N 29°56' E 122°04'620643.1
2015-Mar-03 11:33N 23°05' E 113°26'6174946.5
2015-Mar-03 11:26N 29°50' E 122°06'617705.1
2015-Mar-03 10:33N 23°05' E 113°26'6105988.3
2015-Mar-03 10:27N 29°43' E 122°03'610684.0
2015-Mar-03 09:33N 23°05' E 113°26'1 1.0
2015-Mar-03 08:33N 23°06' E 113°27'0 0.0
2015-Mar-03 07:33N 23°06' E 113°27'0 0.0
2015-Mar-03 06:33N 23°06' E 113°27'0 0.0
2015-Mar-03 05:33N 23°06' E 113°27'0 0.3
2015-Mar-03 04:33N 23°06' E 113°27'0 0.4
2015-Mar-03 03:33N 23°06' E 113°26'1 0.6
2015-Mar-03 02:33N 23°06' E 113°27'1 1.3
2015-Mar-03 01:32N 23°05' E 113°28'664292.5
2015-Mar-02 23:16N 32°04' E 120°45'47 1.9
2015-Mar-01 22:22N 32°17' E 119°51'13 7.0
2015-Mar-01 20:33N 32°05' E 119°56'64433097.2
2015-Mar-01 20:32N 22°59' E 113°32'641654.6
2015-Mar-01 19:33N 31°59' E 120°01'63771702.5
2015-Mar-01 19:33N 23°06' E 113°27'0 0.0
2015-Mar-01 18:33N 23°06' E 113°27'640767636.3
2015-Mar-01 18:33N 31°56' E 120°10'8 7.7
2015-Mar-01 17:33N 31°58' E 120°19'6461162434.3
2015-Mar-01 17:33N 23°06' E 113°27'653654.2
2015-Mar-01 16:33N 32°03' E 120°26'653180867.3
2015-Mar-01 16:33N 23°06' E 113°27'0 0.0
2015-Mar-01 15:33N 23°06' E 113°27'6571182659.2
2015-Mar-01 15:33N 32°03' E 120°33'6 6.1
2015-Mar-01 14:33N 32°00' E 120°40'65856393.2
2015-Mar-01 14:33N 23°06' E 113°27'662659.6
2015-Mar-01 13:32N 32°01' E 120°46'6 5.7
2015-Mar-01 12:33N 31°57' E 120°52'6 5.9
2015-Mar-01 11:32N 31°52' E 120°54'65936490.5
2015-Mar-01 11:31N 23°06' E 113°27'0 0.0
2015-Mar-01 10:33N 23°06' E 113°27'6583906.3
2015-Mar-01 10:23N 31°47' E 120°59'658792.5
2015-Mar-01 09:33N 23°06' E 113°27'66014757.9
2015-Mar-01 09:31N 31°46' E 121°05'6 6.0
2015-Mar-01 08:33N 31°42' E 121°09'6592373810.2
2015-Mar-01 08:33N 23°06' E 113°27'0 0.0
2015-Mar-01 07:33N 23°06' E 113°27'6602375384.0
2015-Mar-01 07:33N 31°38' E 121°15'6 6.5
2015-Mar-01 06:33N 31°33' E 121°20'65971876.4
2015-Mar-01 06:33N 23°06' E 113°27'660665.8
2015-Mar-01 05:33N 31°29' E 121°27'66044808.3
2015-Mar-01 05:33N 23°06' E 113°27'660667.8
2015-Mar-01 04:33N 31°24' E 121°33'66079181.1
2015-Mar-01 04:33N 23°06' E 113°27'0 0.1
2015-Mar-01 03:33N 23°06' E 113°27'65927603.5
2015-Mar-01 03:31N 31°23' E 121°34'659675.6
2015-Mar-01 02:33N 23°06' E 113°27'65926675.3
2015-Mar-01 02:31N 31°23' E 121°34'659681.6
2015-Mar-01 01:33N 23°04' E 113°30'65920119.5
2015-Mar-01 01:31N 31°23' E 121°34'2 2.1
2015-Mar-01 00:33N 31°24' E 121°36'0 0.1
2015-Feb-28 23:32N 31°24' E 121°37'0 0.0
2015-Feb-28 22:32N 31°24' E 121°37'0 0.0
2015-Feb-28 21:32N 31°24' E 121°37'0 0.0
2015-Feb-28 20:32N 31°24' E 121°37'4 3.7
2015-Feb-28 19:33N 31°21' E 121°39'0 0.0
2015-Feb-28 18:33N 31°20' E 121°39'0 0.0
2015-Feb-28 17:33N 31°20' E 121°39'0 0.0
2015-Feb-28 16:33N 31°20' E 121°39'0 0.0
2015-Feb-28 15:28N 31°20' E 121°39'0 0.2
2015-Feb-28 14:33N 31°21' E 121°39'1 1.1
2015-Feb-28 13:28N 31°20' E 121°40'0 0.0
2015-Feb-28 12:31N 31°20' E 121°40'0 0.3
2015-Feb-28 11:33N 31°20' E 121°40'0 0.4
2015-Feb-28 10:33N 31°20' E 121°40'4 3.6
2015-Feb-28 09:27N 31°22' E 121°36'0 0.0
2015-Feb-28 08:27N 31°22' E 121°36'0 0.0
2015-Feb-28 07:33N 31°22' E 121°36'0 0.1
2015-Feb-28 06:33N 31°22' E 121°36'0 0.0
2015-Feb-28 05:33N 31°22' E 121°36'0 0.0
2015-Feb-28 04:33N 31°22' E 121°36'5 5.4
2015-Feb-28 03:33N 31°25' E 121°30'7 7.4
2015-Feb-28 02:33N 31°30' E 121°24'7 7.2
2015-Feb-28 01:33N 31°35' E 121°18'6 6.3
2015-Feb-28 00:33N 31°39' E 121°13'7 6.6
2015-Feb-27 23:33N 31°43' E 121°06'7 7.1
2015-Feb-27 22:33N 31°47' E 120°59'8 7.6
2015-Feb-27 21:33N 31°52' E 120°53'9 8.8
2015-Feb-27 20:33N 32°00' E 120°48'9 9.0
2015-Feb-27 19:33N 31°60' E 120°38'9 8.6
2015-Feb-27 18:33N 32°04' E 120°29'65752548.7
2015-Feb-27 18:33N 23°02' E 113°31'650659.4
2015-Feb-27 17:33N 32°00' E 120°22'64946732.9
2015-Feb-27 17:33N 23°06' E 113°27'0 0.0
2015-Feb-27 16:33N 23°06' E 113°27'642128331.0
2015-Feb-27 16:33N 31°56' E 120°14'642644.9
2015-Feb-27 15:33N 23°06' E 113°27'638176674.1
2015-Feb-27 15:33N 31°57' E 120°05'638640.1
2015-Feb-27 14:33N 23°06' E 113°27'63860411.2
2015-Feb-27 14:33N 32°01' E 119°57'638641.1
2015-Feb-27 13:33N 23°06' E 113°27'0 0.0
2015-Feb-27 12:33N 23°06' E 113°27'64833334.1
2015-Feb-27 12:32N 32°18' E 119°49'648657.1
2015-Feb-27 11:33N 23°06' E 113°27'0 0.0
2015-Feb-27 10:33N 23°06' E 113°27'0 0.0
2015-Feb-27 09:33N 23°06' E 113°27'6606670.7
2015-Feb-27 09:27N 31°42' E 121°10'660741.4
2015-Feb-27 08:33N 23°06' E 113°27'6602375681.0
2015-Feb-27 08:33N 31°38' E 121°15'660659.5
2015-Feb-27 07:33N 23°06' E 113°27'659593390.9
2015-Feb-27 07:33N 31°35' E 121°19'5 5.4
2015-Feb-27 06:33N 31°31' E 121°24'65959354.9
2015-Feb-27 06:33N 23°06' E 113°27'0 0.0
2015-Feb-27 05:33N 23°06' E 113°27'66084795.4
2015-Feb-27 05:33N 31°28' E 121°28'660665.3
2015-Feb-27 04:33N 23°05' E 113°26'661264339.3
2015-Feb-27 04:33N 31°24' E 121°33'6 5.6
2015-Feb-27 03:33N 31°22' E 121°39'66279449.6
2015-Feb-27 03:33N 23°05' E 113°26'662668.8
2015-Feb-27 02:33N 31°19' E 121°41'662125388.0
2015-Feb-27 02:33N 23°05' E 113°26'0 0.0
2015-Feb-27 01:33N 23°05' E 113°26'662113445.5
2015-Feb-27 01:33N 31°19' E 121°41'0 0.0
2015-Feb-27 00:33N 31°19' E 121°41'662476474.4
2015-Feb-27 00:33N 23°05' E 113°26'0 0.0
2015-Feb-26 23:33N 23°05' E 113°26'661198444.2
2015-Feb-26 23:33N 31°22' E 121°37'5 5.5
2015-Feb-26 22:34N 31°24' E 121°31'659169544.9
2015-Feb-26 22:33N 23°05' E 113°26'657659.4
2015-Feb-26 21:33N 31°21' E 121°31'65732403.3
2015-Feb-26 21:32N 23°05' E 113°26'0 0.0
2015-Feb-26 20:33N 23°05' E 113°26'6572365454.2
2015-Feb-26 20:33N 31°21' E 121°31'0 0.0
2015-Feb-26 19:33N 31°21' E 121°31'657181955.5
2015-Feb-26 19:33N 23°05' E 113°26'0 0.0
2015-Feb-26 18:33N 23°05' E 113°26'65787608.8
2015-Feb-26 18:33N 31°21' E 121°31'657658.3
2015-Feb-26 17:33N 23°05' E 113°26'657236562.7
2015-Feb-26 17:33N 31°21' E 121°31'657662.6
2015-Feb-26 16:33N 23°05' E 113°26'657131414.1
2015-Feb-26 16:33N 31°21' E 121°31'0 0.0
2015-Feb-26 15:33N 31°21' E 121°31'65694516.2
2015-Feb-26 15:33N 23°06' E 113°27'0 0.3
2015-Feb-26 14:33N 23°06' E 113°27'656787343.6
2015-Feb-26 14:33N 31°21' E 121°31'0 0.0
2015-Feb-26 13:33N 31°21' E 121°31'656107364.3
2015-Feb-26 13:33N 23°06' E 113°27'0 0.0
2015-Feb-26 12:33N 23°06' E 113°27'65641438.0
2015-Feb-26 12:32N 31°21' E 121°31'656666.7
2015-Feb-26 11:33N 23°06' E 113°27'65642944.9
2015-Feb-26 11:32N 31°21' E 121°31'656658.8
2015-Feb-26 10:33N 23°06' E 113°27'65684355.4
2015-Feb-26 10:32N 31°21' E 121°31'656668.5
2015-Feb-26 09:33N 23°06' E 113°27'65617115.5
2015-Feb-26 09:31N 31°21' E 121°31'0 0.0
2015-Feb-26 08:33N 31°21' E 121°31'656337421.7
2015-Feb-26 08:33N 23°06' E 113°27'656652.5
2015-Feb-26 07:33N 31°21' E 121°31'656112485.3
2015-Feb-26 07:33N 23°06' E 113°27'8 8.4
2015-Feb-26 06:33N 22°58' E 113°32'6596499.3
2015-Feb-26 06:27N 31°21' E 121°30'0 0.0
2015-Feb-26 05:32N 31°21' E 121°30'0 0.0
2015-Feb-26 04:33N 31°21' E 121°30'0 0.0
2015-Feb-26 03:33N 31°21' E 121°30'0 0.0
2015-Feb-26 02:33N 31°21' E 121°30'0 0.1
2015-Feb-26 01:29N 31°21' E 121°31'0 0.0
2015-Feb-26 00:30N 31°21' E 121°31'0 0.1
2015-Feb-25 23:33N 31°21' E 121°31'0 0.2
2015-Feb-25 22:33N 31°21' E 121°30'610415378.7
2015-Feb-25 22:09N 33°37' W 117°55'610410085.4
2015-Feb-25 21:33N 31°21' E 121°30'539759054.2
2015-Feb-25 21:28N 49°18' W 122°53'53975983.6
2015-Feb-25 20:33N 31°21' E 121°30'5393388314.5
2015-Feb-25 20:33N 49°18' W 122°58'53935458.5
2015-Feb-25 19:33N 31°21' E 121°30'53931617988.2
2015-Feb-25 19:33N 49°18' W 122°58'53935403.8
2015-Feb-25 18:33N 31°21' E 121°30'53953236729.4
2015-Feb-25 18:33N 49°18' W 122°56'53955394.5
2015-Feb-25 17:33N 31°21' E 121°30'0 0.0
2015-Feb-25 16:33N 31°21' E 121°30'0 0.0
2015-Feb-25 15:33N 31°21' E 121°30'0 0.1
2015-Feb-25 14:33N 31°21' E 121°30'6591451.2
2015-Feb-25 14:06N 22°59' E 113°31'6591207.3
2015-Feb-25 13:33N 31°21' E 121°30'6561181015.4
2015-Feb-25 13:33N 23°04' E 113°29'63230343.1
2015-Feb-25 13:32N 30°58' E 121°18'632645.4
2015-Feb-25 12:33N 23°06' E 113°27'6351142327.9
2015-Feb-25 12:33N 30°59' E 121°22'242007.7
2015-Feb-25 12:32N 31°22' E 121°30'656664.5
2015-Feb-25 11:33N 23°06' E 113°27'660113155.9
2015-Feb-25 11:33N 31°25' E 121°33'252702.0
2015-Feb-25 11:32N 31°01' E 121°27'3 3.5
2015-Feb-25 10:33N 31°04' E 121°28'213506.1
2015-Feb-25 10:33N 31°25' E 121°33'660396045.5
2015-Feb-25 10:33N 23°06' E 113°27'0 0.0
2015-Feb-25 09:33N 23°06' E 113°27'645154771.8
2015-Feb-25 09:33N 31°09' E 121°27'17741.3
2015-Feb-25 09:32N 31°25' E 121°33'1212.8
2015-Feb-25 08:33N 31°13' E 121°30'650259836.5
2015-Feb-25 08:33N 23°06' E 113°27'660198022.7
2015-Feb-25 08:33N 31°25' E 121°33'0 0.0
2015-Feb-25 07:33N 31°25' E 121°33'660475257.8
2015-Feb-25 07:33N 23°06' E 113°27'65318662.3
2015-Feb-25 07:31N 31°16' E 121°33'9 9.6
2015-Feb-25 06:33N 31°25' E 121°33'66099011.4
2015-Feb-25 06:33N 23°06' E 113°27'6575301.3
2015-Feb-25 06:26N 31°20' E 121°33'658755.3
2015-Feb-25 05:33N 23°05' E 113°26'66016495.9
2015-Feb-25 05:31N 31°27' E 121°28'5971.6
2015-Feb-25 05:31N 31°23' E 121°30'1212.0
2015-Feb-25 04:33N 31°31' E 121°21'659182547.5
2015-Feb-25 04:33N 23°05' E 113°26'66028271.0
2015-Feb-25 04:31N 31°26' E 121°29'1616.6
2015-Feb-25 03:33N 31°38' E 121°15'661297243.0
2015-Feb-25 03:33N 23°05' E 113°26'65943947.4
2015-Feb-25 03:32N 31°30' E 121°23'659669.2
2015-Feb-25 02:33N 23°05' E 113°26'660395820.3
2015-Feb-25 02:33N 31°34' E 121°18'112721.9
2015-Feb-25 02:33N 31°42' E 121°09'5 4.6
2015-Feb-25 01:34N 31°39' E 121°13'66069927.1
2015-Feb-25 01:33N 23°05' E 113°26'682349025.9
2015-Feb-25 01:25N 33°37' W 117°55'68237977.3
2015-Feb-25 00:33N 23°05' E 113°26'0 0.1
2015-Feb-24 23:33N 23°05' E 113°26'66074236.4
2015-Feb-24 23:33N 31°44' E 121°05'1060.2
2015-Feb-24 23:22N 31°50' E 120°54'3 3.4
2015-Feb-24 22:33N 31°53' E 120°53'660125063.0
2015-Feb-24 22:33N 23°05' E 113°26'0 0.0
2015-Feb-24 21:33N 23°05' E 113°26'61901591596.6
2015-Feb-24 21:33N 49°18' W 122°56'5394285545.7
2015-Feb-24 21:32N 31°56' E 120°52'662674.0
2015-Feb-24 20:33N 23°05' E 113°26'66319902.8
2015-Feb-24 20:31N 31°60' E 120°49'539296569.0
2015-Feb-24 20:28N 49°18' W 122°58'61886838.1
2015-Feb-24 19:33N 23°05' E 113°26'6188167505.7
2015-Feb-24 19:31N 49°18' W 122°58'61886423.9
2015-Feb-24 18:33N 23°05' E 113°26'61892784830.1
2015-Feb-24 18:33N 49°18' W 122°58'61896204.0
2015-Feb-24 17:33N 23°05' E 113°26'0 0.0
2015-Feb-24 16:33N 23°05' E 113°26'6621492.4
2015-Feb-24 16:06N 31°55' E 120°52'6621214.0
2015-Feb-24 15:33N 23°05' E 113°26'6632287.6
2015-Feb-24 15:16N 31°59' E 120°49'663934.0
2015-Feb-24 14:33N 23°05' E 113°26'6601438.6
2015-Feb-24 14:06N 32°00' E 120°42'6601220.0
2015-Feb-24 13:33N 23°05' E 113°26'6585935.0
2015-Feb-24 13:27N 31°60' E 120°38'657738.5
2015-Feb-24 12:33N 23°06' E 113°27'0 0.0
2015-Feb-24 11:33N 23°06' E 113°27'0 0.0
2015-Feb-24 10:33N 23°06' E 113°27'  

Dump ship's entire track history